sensor_id;sensor_type;location;lat;lon;timestamp;P1;durP1;ratioP1;P2;durP2;ratioP2
39896;SDS011;25567;48.276;14.242;2022-11-20T12:34:39;90.43;;;33.17;;
39896;SDS011;25567;48.276;14.242;2022-11-20T12:37:30;88.53;;;30.55;;
39896;SDS011;25567;48.276;14.242;2022-11-20T12:49:06;80.72;;;31.20;;
39896;SDS011;25567;48.276;14.242;2022-11-20T12:51:56;81.15;;;31.17;;
39896;SDS011;25567;48.276;14.242;2022-11-20T13:05:24;103.60;;;33.35;;
39896;SDS011;25567;48.276;14.242;2022-11-20T13:07:53;94.65;;;33.25;;
39896;SDS011;25567;48.276;14.242;2022-11-20T13:10:33;89.55;;;33.65;;
39896;SDS011;25567;48.276;14.242;2022-11-20T13:13:11;93.97;;;33.78;;
39896;SDS011;25567;48.276;14.242;2022-11-20T13:15:50;103.45;;;35.30;;
39896;SDS011;25567;48.276;14.242;2022-11-20T13:18:22;99.32;;;35.22;;
39896;SDS011;25567;48.276;14.242;2022-11-20T13:20:49;101.05;;;34.42;;
39896;SDS011;25567;48.276;14.242;2022-11-20T13:23:25;104.82;;;35.45;;
39896;SDS011;25567;48.276;14.242;2022-11-20T13:28:35;115.63;;;39.00;;
39896;SDS011;25567;48.276;14.242;2022-11-20T13:31:02;122.38;;;40.65;;
39896;SDS011;25567;48.276;14.242;2022-11-20T13:33:30;158.50;;;46.03;;
39896;SDS011;25567;48.276;14.242;2022-11-20T13:35:59;165.32;;;50.38;;
39896;SDS011;25567;48.276;14.242;2022-11-20T13:38:28;153.43;;;49.63;;
39896;SDS011;25567;48.276;14.242;2022-11-20T13:41:06;165.48;;;51.72;;
39896;SDS011;25567;48.276;14.242;2022-11-20T13:43:49;161.32;;;50.33;;
39896;SDS011;25567;48.276;14.242;2022-11-20T13:46:18;179.93;;;53.58;;
39896;SDS011;25567;48.276;14.242;2022-11-20T13:48:50;175.57;;;51.45;;
39896;SDS011;25567;48.276;14.242;2022-11-20T13:59:58;173.45;;;51.97;;
39896;SDS011;25567;48.276;14.242;2022-11-20T14:02:36;190.45;;;53.78;;
39896;SDS011;25567;48.276;14.242;2022-11-20T14:05:03;178.43;;;51.55;;
39896;SDS011;25567;48.276;14.242;2022-11-20T14:07:32;178.82;;;52.80;;
39896;SDS011;25567;48.276;14.242;2022-11-20T14:10:04;178.20;;;51.80;;
39896;SDS011;25567;48.276;14.242;2022-11-20T14:12:32;168.93;;;52.20;;
39896;SDS011;25567;48.276;14.242;2022-11-20T14:15:00;175.07;;;52.67;;
39896;SDS011;25567;48.276;14.242;2022-11-20T14:17:31;171.43;;;51.22;;
39896;SDS011;25567;48.276;14.242;2022-11-20T14:20:00;168.68;;;50.90;;
39896;SDS011;25567;48.276;14.242;2022-11-20T14:22:30;155.63;;;51.38;;
39896;SDS011;25567;48.276;14.242;2022-11-20T14:25:03;181.70;;;53.40;;
39896;SDS011;25567;48.276;14.242;2022-11-20T14:27:32;177.18;;;52.13;;
39896;SDS011;25567;48.276;14.242;2022-11-20T14:30:01;168.50;;;49.97;;
39896;SDS011;25567;48.276;14.242;2022-11-20T14:32:29;165.02;;;48.20;;
39896;SDS011;25567;48.276;14.242;2022-11-20T14:34:59;165.82;;;51.58;;
39896;SDS011;25567;48.276;14.242;2022-11-20T14:37:35;153.43;;;46.38;;
39896;SDS011;25567;48.276;14.242;2022-11-20T14:40:14;159.85;;;46.03;;
39896;SDS011;25567;48.276;14.242;2022-11-20T14:42:48;146.10;;;45.72;;
39896;SDS011;25567;48.276;14.242;2022-11-20T14:45:15;136.65;;;46.05;;
39896;SDS011;25567;48.276;14.242;2022-11-20T14:47:42;149.20;;;45.30;;
39896;SDS011;25567;48.276;14.242;2022-11-20T14:50:15;147.18;;;48.50;;
39896;SDS011;25567;48.276;14.242;2022-11-20T14:52:55;151.60;;;45.50;;
39896;SDS011;25567;48.276;14.242;2022-11-20T14:55:25;148.27;;;47.10;;
39896;SDS011;25567;48.276;14.242;2022-11-20T14:57:55;152.75;;;45.45;;
39896;SDS011;25567;48.276;14.242;2022-11-20T15:00:23;153.35;;;47.63;;
39896;SDS011;25567;48.276;14.242;2022-11-20T15:02:51;154.38;;;45.30;;
39896;SDS011;25567;48.276;14.242;2022-11-20T15:05:20;151.30;;;44.83;;
39896;SDS011;25567;48.276;14.242;2022-11-20T15:07:50;138.40;;;44.53;;
39896;SDS011;25567;48.276;14.242;2022-11-20T15:10:20;126.80;;;41.20;;
39896;SDS011;25567;48.276;14.242;2022-11-20T15:12:50;135.38;;;41.20;;
39896;SDS011;25567;48.276;14.242;2022-11-20T15:15:21;121.78;;;41.42;;
39896;SDS011;25567;48.276;14.242;2022-11-20T15:17:54;120.55;;;39.47;;
39896;SDS011;25567;48.276;14.242;2022-11-20T15:20:21;117.00;;;40.03;;
39896;SDS011;25567;48.276;14.242;2022-11-20T15:22:56;109.32;;;36.72;;
39896;SDS011;25567;48.276;14.242;2022-11-20T15:25:23;113.13;;;39.33;;
39896;SDS011;25567;48.276;14.242;2022-11-20T15:27:53;125.40;;;39.53;;
39896;SDS011;25567;48.276;14.242;2022-11-20T15:30:22;126.95;;;40.42;;
39896;SDS011;25567;48.276;14.242;2022-11-20T15:32:49;123.85;;;38.92;;
39896;SDS011;25567;48.276;14.242;2022-11-20T15:35:16;131.18;;;42.30;;
39896;SDS011;25567;48.276;14.242;2022-11-20T15:37:43;134.25;;;40.72;;
39896;SDS011;25567;48.276;14.242;2022-11-20T15:40:10;126.35;;;42.60;;
39896;SDS011;25567;48.276;14.242;2022-11-20T15:42:37;118.55;;;38.75;;
39896;SDS011;25567;48.276;14.242;2022-11-20T15:45:04;121.60;;;39.10;;
39896;SDS011;25567;48.276;14.242;2022-11-20T15:47:33;107.75;;;37.45;;
39896;SDS011;25567;48.276;14.242;2022-11-20T15:50:01;129.20;;;40.63;;
39896;SDS011;25567;48.276;14.242;2022-11-20T15:52:28;116.97;;;40.20;;
39896;SDS011;25567;48.276;14.242;2022-11-20T15:55:09;129.55;;;42.45;;
39896;SDS011;25567;48.276;14.242;2022-11-20T15:57:36;119.15;;;39.53;;
39896;SDS011;25567;48.276;14.242;2022-11-20T16:00:03;128.07;;;41.17;;
39896;SDS011;25567;48.276;14.242;2022-11-20T16:02:30;124.90;;;40.45;;
39896;SDS011;25567;48.276;14.242;2022-11-20T16:04:57;127.47;;;38.08;;
39896;SDS011;25567;48.276;14.242;2022-11-20T16:07:24;104.35;;;38.70;;
39896;SDS011;25567;48.276;14.242;2022-11-20T16:09:50;115.03;;;38.90;;
39896;SDS011;25567;48.276;14.242;2022-11-20T16:12:17;123.63;;;38.80;;
39896;SDS011;25567;48.276;14.242;2022-11-20T16:15:04;112.47;;;36.50;;
39896;SDS011;25567;48.276;14.242;2022-11-20T16:17:46;112.65;;;35.65;;
39896;SDS011;25567;48.276;14.242;2022-11-20T16:20:13;110.43;;;36.50;;
39896;SDS011;25567;48.276;14.242;2022-11-20T16:22:43;110.43;;;38.15;;
39896;SDS011;25567;48.276;14.242;2022-11-20T16:25:09;123.63;;;39.25;;
39896;SDS011;25567;48.276;14.242;2022-11-20T16:27:36;117.93;;;39.17;;
39896;SDS011;25567;48.276;14.242;2022-11-20T16:30:03;125.78;;;42.10;;
39896;SDS011;25567;48.276;14.242;2022-11-20T16:32:30;135.50;;;43.22;;
39896;SDS011;25567;48.276;14.242;2022-11-20T16:34:57;131.85;;;42.95;;
39896;SDS011;25567;48.276;14.242;2022-11-20T16:37:24;132.93;;;42.67;;
39896;SDS011;25567;48.276;14.242;2022-11-20T16:39:50;123.78;;;42.60;;
39896;SDS011;25567;48.276;14.242;2022-11-20T16:42:17;126.13;;;41.53;;
39896;SDS011;25567;48.276;14.242;2022-11-20T16:44:45;122.30;;;43.33;;
39896;SDS011;25567;48.276;14.242;2022-11-20T16:47:12;134.13;;;43.20;;
39896;SDS011;25567;48.276;14.242;2022-11-20T16:49:39;123.40;;;40.55;;
39896;SDS011;25567;48.276;14.242;2022-11-20T16:52:05;128.95;;;41.15;;
39896;SDS011;25567;48.276;14.242;2022-11-20T16:54:33;122.30;;;41.47;;
39896;SDS011;25567;48.276;14.242;2022-11-20T16:56:59;133.77;;;41.42;;
39896;SDS011;25567;48.276;14.242;2022-11-20T16:59:26;114.75;;;39.17;;
39896;SDS011;25567;48.276;14.242;2022-11-20T17:01:53;124.55;;;42.47;;
39896;SDS011;25567;48.276;14.242;2022-11-20T17:04:20;127.88;;;42.67;;
39896;SDS011;25567;48.276;14.242;2022-11-20T17:06:47;134.77;;;44.97;;
39896;SDS011;25567;48.276;14.242;2022-11-20T17:09:13;129.75;;;44.30;;
39896;SDS011;25567;48.276;14.242;2022-11-20T17:11:40;140.63;;;46.70;;
39896;SDS011;25567;48.276;14.242;2022-11-20T17:14:08;135.73;;;44.85;;
39896;SDS011;25567;48.276;14.242;2022-11-20T17:16:36;140.63;;;44.83;;
39896;SDS011;25567;48.276;14.242;2022-11-20T17:19:03;109.80;;;38.88;;
39896;SDS011;25567;48.276;14.242;2022-11-20T17:21:31;104.97;;;37.88;;
39896;SDS011;25567;48.276;14.242;2022-11-20T17:24:01;107.07;;;36.88;;
39896;SDS011;25567;48.276;14.242;2022-11-20T17:26:30;96.40;;;35.63;;
39896;SDS011;25567;48.276;14.242;2022-11-20T17:29:01;118.40;;;37.90;;
39896;SDS011;25567;48.276;14.242;2022-11-20T17:31:31;122.97;;;39.70;;
39896;SDS011;25567;48.276;14.242;2022-11-20T17:33:59;117.03;;;40.20;;
39896;SDS011;25567;48.276;14.242;2022-11-20T17:36:27;107.00;;;38.63;;
39896;SDS011;25567;48.276;14.242;2022-11-20T17:38:55;113.55;;;37.00;;
39896;SDS011;25567;48.276;14.242;2022-11-20T17:41:22;123.82;;;40.42;;
39896;SDS011;25567;48.276;14.242;2022-11-20T17:43:52;117.05;;;40.40;;
39896;SDS011;25567;48.276;14.242;2022-11-20T17:46:21;136.48;;;43.75;;
39896;SDS011;25567;48.276;14.242;2022-11-20T17:48:49;119.03;;;40.55;;
39896;SDS011;25567;48.276;14.242;2022-11-20T17:51:19;125.10;;;41.55;;
39896;SDS011;25567;48.276;14.242;2022-11-20T17:53:48;138.60;;;47.42;;
39896;SDS011;25567;48.276;14.242;2022-11-20T17:56:17;117.22;;;41.05;;
39896;SDS011;25567;48.276;14.242;2022-11-20T17:58:59;126.63;;;42.92;;
39896;SDS011;25567;48.276;14.242;2022-11-20T18:01:29;126.18;;;42.97;;
39896;SDS011;25567;48.276;14.242;2022-11-20T18:03:55;127.82;;;42.10;;
39896;SDS011;25567;48.276;14.242;2022-11-20T18:06:23;122.38;;;42.13;;
39896;SDS011;25567;48.276;14.242;2022-11-20T18:08:51;135.05;;;44.97;;
39896;SDS011;25567;48.276;14.242;2022-11-20T18:11:19;137.43;;;45.40;;
39896;SDS011;25567;48.276;14.242;2022-11-20T18:13:49;128.68;;;45.22;;
39896;SDS011;25567;48.276;14.242;2022-11-20T18:16:34;125.95;;;42.33;;
39896;SDS011;25567;48.276;14.242;2022-11-20T18:19:03;101.93;;;37.78;;
39896;SDS011;25567;48.276;14.242;2022-11-20T18:21:30;90.55;;;32.92;;
39896;SDS011;25567;48.276;14.242;2022-11-20T18:23:57;97.72;;;35.90;;
39896;SDS011;25567;48.276;14.242;2022-11-20T18:26:24;105.57;;;35.55;;
39896;SDS011;25567;48.276;14.242;2022-11-20T18:28:51;107.25;;;37.55;;
39896;SDS011;25567;48.276;14.242;2022-11-20T18:31:20;107.78;;;36.33;;
39896;SDS011;25567;48.276;14.242;2022-11-20T18:33:47;107.57;;;36.92;;
39896;SDS011;25567;48.276;14.242;2022-11-20T18:36:18;111.85;;;38.10;;
39896;SDS011;25567;48.276;14.242;2022-11-20T18:38:48;113.07;;;38.65;;
39896;SDS011;25567;48.276;14.242;2022-11-20T18:41:18;101.97;;;36.55;;
39896;SDS011;25567;48.276;14.242;2022-11-20T18:44:01;114.32;;;38.88;;
39896;SDS011;25567;48.276;14.242;2022-11-20T18:46:46;120.07;;;39.67;;
39896;SDS011;25567;48.276;14.242;2022-11-20T18:49:13;115.38;;;39.90;;
39896;SDS011;25567;48.276;14.242;2022-11-20T18:51:40;111.75;;;37.38;;
39896;SDS011;25567;48.276;14.242;2022-11-20T18:54:10;112.07;;;37.50;;
39896;SDS011;25567;48.276;14.242;2022-11-20T18:56:38;97.20;;;35.40;;
39896;SDS011;25567;48.276;14.242;2022-11-20T18:59:08;97.43;;;32.67;;
39896;SDS011;25567;48.276;14.242;2022-11-20T19:01:36;88.47;;;31.65;;
39896;SDS011;25567;48.276;14.242;2022-11-20T19:04:07;93.25;;;32.65;;
39896;SDS011;25567;48.276;14.242;2022-11-20T19:06:36;91.93;;;33.03;;
39896;SDS011;25567;48.276;14.242;2022-11-20T19:09:04;77.90;;;30.75;;
39896;SDS011;25567;48.276;14.242;2022-11-20T19:11:31;76.50;;;29.27;;
39896;SDS011;25567;48.276;14.242;2022-11-20T19:13:58;84.13;;;29.48;;
39896;SDS011;25567;48.276;14.242;2022-11-20T19:16:24;28.67;;;11.02;;
39896;SDS011;25567;48.276;14.242;2022-11-20T19:18:51;19.85;;;8.07;;
39896;SDS011;25567;48.276;14.242;2022-11-20T19:21:22;23.63;;;8.90;;
39896;SDS011;25567;48.276;14.242;2022-11-20T19:23:50;16.67;;;6.82;;
39896;SDS011;25567;48.276;14.242;2022-11-20T19:26:19;13.93;;;6.07;;
39896;SDS011;25567;48.276;14.242;2022-11-20T19:28:47;14.25;;;6.25;;
39896;SDS011;25567;48.276;14.242;2022-11-20T19:31:15;12.57;;;5.65;;
39896;SDS011;25567;48.276;14.242;2022-11-20T19:33:54;12.10;;;5.28;;
39896;SDS011;25567;48.276;14.242;2022-11-20T19:36:24;9.32;;;4.82;;
39896;SDS011;25567;48.276;14.242;2022-11-20T19:38:52;13.00;;;6.70;;
39896;SDS011;25567;48.276;14.242;2022-11-20T19:41:22;19.58;;;8.88;;
39896;SDS011;25567;48.276;14.242;2022-11-20T19:43:58;31.67;;;11.63;;
39896;SDS011;25567;48.276;14.242;2022-11-20T19:46:27;26.88;;;11.98;;
39896;SDS011;25567;48.276;14.242;2022-11-20T19:48:55;45.05;;;16.50;;
39896;SDS011;25567;48.276;14.242;2022-11-20T19:51:24;46.45;;;17.27;;
39896;SDS011;25567;48.276;14.242;2022-11-20T19:53:53;44.00;;;16.27;;
39896;SDS011;25567;48.276;14.242;2022-11-20T19:56:22;41.10;;;15.38;;
39896;SDS011;25567;48.276;14.242;2022-11-20T19:58:51;27.33;;;11.65;;
39896;SDS011;25567;48.276;14.242;2022-11-20T20:01:19;20.02;;;9.25;;
39896;SDS011;25567;48.276;14.242;2022-11-20T20:03:50;16.80;;;6.97;;
39896;SDS011;25567;48.276;14.242;2022-11-20T20:06:19;18.92;;;8.05;;
39896;SDS011;25567;48.276;14.242;2022-11-20T20:11:31;11.95;;;5.72;;
39896;SDS011;25567;48.276;14.242;2022-11-20T20:14:00;15.40;;;7.18;;
39896;SDS011;25567;48.276;14.242;2022-11-20T20:16:29;16.20;;;7.97;;
39896;SDS011;25567;48.276;14.242;2022-11-20T20:18:57;21.92;;;8.45;;
39896;SDS011;25567;48.276;14.242;2022-11-20T20:21:26;29.52;;;12.02;;
39896;SDS011;25567;48.276;14.242;2022-11-20T20:23:56;24.40;;;11.10;;
39896;SDS011;25567;48.276;14.242;2022-11-20T20:26:24;20.15;;;9.45;;
39896;SDS011;25567;48.276;14.242;2022-11-20T20:28:53;18.67;;;8.68;;
39896;SDS011;25567;48.276;14.242;2022-11-20T20:31:21;18.40;;;8.00;;
39896;SDS011;25567;48.276;14.242;2022-11-20T20:33:50;16.05;;;7.28;;
39896;SDS011;25567;48.276;14.242;2022-11-20T20:36:17;15.95;;;6.57;;
39896;SDS011;25567;48.276;14.242;2022-11-20T20:38:45;16.83;;;6.80;;
39896;SDS011;25567;48.276;14.242;2022-11-20T20:41:12;11.80;;;6.28;;
39896;SDS011;25567;48.276;14.242;2022-11-20T20:43:39;14.05;;;6.38;;
39896;SDS011;25567;48.276;14.242;2022-11-20T20:46:22;15.18;;;7.20;;
39896;SDS011;25567;48.276;14.242;2022-11-20T20:48:49;16.98;;;7.70;;
39896;SDS011;25567;48.276;14.242;2022-11-20T20:51:20;12.95;;;6.80;;
39896;SDS011;25567;48.276;14.242;2022-11-20T20:53:47;12.50;;;5.82;;
39896;SDS011;25567;48.276;14.242;2022-11-20T20:56:15;12.57;;;5.25;;
39896;SDS011;25567;48.276;14.242;2022-11-20T20:58:43;13.45;;;5.80;;
39896;SDS011;25567;48.276;14.242;2022-11-20T21:01:11;10.65;;;5.50;;
39896;SDS011;25567;48.276;14.242;2022-11-20T21:03:39;9.70;;;4.97;;
39896;SDS011;25567;48.276;14.242;2022-11-20T21:06:07;12.45;;;5.18;;
39896;SDS011;25567;48.276;14.242;2022-11-20T21:08:35;9.20;;;5.28;;
39896;SDS011;25567;48.276;14.242;2022-11-20T21:13:34;10.40;;;5.03;;
39896;SDS011;25567;48.276;14.242;2022-11-20T21:16:02;9.45;;;4.78;;
39896;SDS011;25567;48.276;14.242;2022-11-20T21:18:30;10.50;;;4.80;;
39896;SDS011;25567;48.276;14.242;2022-11-20T21:20:57;9.82;;;5.35;;
39896;SDS011;25567;48.276;14.242;2022-11-20T21:23:39;12.82;;;6.15;;
39896;SDS011;25567;48.276;14.242;2022-11-20T21:26:07;12.98;;;5.85;;
39896;SDS011;25567;48.276;14.242;2022-11-20T21:28:35;9.48;;;4.57;;
39896;SDS011;25567;48.276;14.242;2022-11-20T21:31:07;7.60;;;4.47;;
39896;SDS011;25567;48.276;14.242;2022-11-20T21:33:35;13.05;;;5.15;;
39896;SDS011;25567;48.276;14.242;2022-11-20T21:36:03;14.13;;;5.65;;
39896;SDS011;25567;48.276;14.242;2022-11-20T21:38:30;14.77;;;6.15;;
39896;SDS011;25567;48.276;14.242;2022-11-20T21:40:57;37.17;;;14.30;;
39896;SDS011;25567;48.276;14.242;2022-11-20T21:43:24;54.83;;;19.67;;
39896;SDS011;25567;48.276;14.242;2022-11-20T21:45:51;25.38;;;9.98;;
39896;SDS011;25567;48.276;14.242;2022-11-20T21:48:18;24.48;;;10.63;;
39896;SDS011;25567;48.276;14.242;2022-11-20T21:50:46;35.95;;;14.82;;
39896;SDS011;25567;48.276;14.242;2022-11-20T21:53:13;48.60;;;20.35;;
39896;SDS011;25567;48.276;14.242;2022-11-20T21:55:40;42.13;;;17.83;;
39896;SDS011;25567;48.276;14.242;2022-11-20T21:58:06;27.30;;;11.82;;
39896;SDS011;25567;48.276;14.242;2022-11-20T22:00:33;30.02;;;13.70;;
39896;SDS011;25567;48.276;14.242;2022-11-20T22:03:00;29.80;;;13.93;;
39896;SDS011;25567;48.276;14.242;2022-11-20T22:05:26;33.00;;;11.15;;
39896;SDS011;25567;48.276;14.242;2022-11-20T22:07:53;18.77;;;8.20;;
39896;SDS011;25567;48.276;14.242;2022-11-20T22:10:20;24.38;;;9.77;;
39896;SDS011;25567;48.276;14.242;2022-11-20T22:12:46;14.43;;;6.60;;
39896;SDS011;25567;48.276;14.242;2022-11-20T22:15:13;15.27;;;5.47;;
39896;SDS011;25567;48.276;14.242;2022-11-20T22:18:00;11.52;;;5.50;;
39896;SDS011;25567;48.276;14.242;2022-11-20T22:20:42;10.38;;;4.60;;
39896;SDS011;25567;48.276;14.242;2022-11-20T22:23:08;10.50;;;5.13;;
39896;SDS011;25567;48.276;14.242;2022-11-20T22:25:35;8.93;;;4.53;;
39896;SDS011;25567;48.276;14.242;2022-11-20T22:28:02;10.93;;;4.90;;
39896;SDS011;25567;48.276;14.242;2022-11-20T22:30:28;11.23;;;4.70;;
39896;SDS011;25567;48.276;14.242;2022-11-20T22:32:55;13.18;;;4.90;;
39896;SDS011;25567;48.276;14.242;2022-11-20T22:35:22;12.05;;;5.30;;
39896;SDS011;25567;48.276;14.242;2022-11-20T22:37:48;9.63;;;4.53;;
39896;SDS011;25567;48.276;14.242;2022-11-20T22:40:15;15.07;;;5.47;;
39896;SDS011;25567;48.276;14.242;2022-11-20T22:42:43;10.10;;;5.20;;
39896;SDS011;25567;48.276;14.242;2022-11-20T22:45:11;10.25;;;4.35;;
39896;SDS011;25567;48.276;14.242;2022-11-20T22:47:39;9.50;;;4.70;;
39896;SDS011;25567;48.276;14.242;2022-11-20T22:50:06;9.43;;;4.25;;
39896;SDS011;25567;48.276;14.242;2022-11-20T22:52:32;8.50;;;3.92;;
39896;SDS011;25567;48.276;14.242;2022-11-20T22:54:59;8.82;;;3.90;;
39896;SDS011;25567;48.276;14.242;2022-11-20T22:57:26;10.00;;;4.32;;
39896;SDS011;25567;48.276;14.242;2022-11-20T22:59:52;9.50;;;4.07;;
39896;SDS011;25567;48.276;14.242;2022-11-20T23:02:19;25.50;;;7.38;;
39896;SDS011;25567;48.276;14.242;2022-11-20T23:04:46;25.73;;;6.90;;
39896;SDS011;25567;48.276;14.242;2022-11-20T23:07:12;16.35;;;5.95;;
39896;SDS011;25567;48.276;14.242;2022-11-20T23:09:39;13.77;;;6.13;;
39896;SDS011;25567;48.276;14.242;2022-11-20T23:12:06;10.95;;;5.50;;
39896;SDS011;25567;48.276;14.242;2022-11-20T23:14:32;13.20;;;5.65;;
39896;SDS011;25567;48.276;14.242;2022-11-20T23:16:59;12.98;;;5.40;;
39896;SDS011;25567;48.276;14.242;2022-11-20T23:19:26;12.80;;;5.72;;
39896;SDS011;25567;48.276;14.242;2022-11-20T23:21:52;13.38;;;6.15;;
39896;SDS011;25567;48.276;14.242;2022-11-20T23:24:19;13.55;;;5.57;;
39896;SDS011;25567;48.276;14.242;2022-11-20T23:26:46;11.95;;;5.72;;
39896;SDS011;25567;48.276;14.242;2022-11-20T23:29:13;13.63;;;5.90;;
39896;SDS011;25567;48.276;14.242;2022-11-20T23:31:39;16.10;;;5.75;;
39896;SDS011;25567;48.276;14.242;2022-11-20T23:34:06;12.52;;;5.82;;
39896;SDS011;25567;48.276;14.242;2022-11-20T23:36:33;12.15;;;5.55;;
39896;SDS011;25567;48.276;14.242;2022-11-20T23:38:59;16.60;;;5.45;;
39896;SDS011;25567;48.276;14.242;2022-11-20T23:41:26;13.27;;;5.53;;
39896;SDS011;25567;48.276;14.242;2022-11-20T23:43:53;10.88;;;4.97;;
39896;SDS011;25567;48.276;14.242;2022-11-20T23:46:20;14.35;;;5.50;;
39896;SDS011;25567;48.276;14.242;2022-11-20T23:48:47;15.43;;;6.18;;
39896;SDS011;25567;48.276;14.242;2022-11-20T23:51:14;11.10;;;5.35;;
39896;SDS011;25567;48.276;14.242;2022-11-20T23:53:40;13.43;;;5.40;;
39896;SDS011;25567;48.276;14.242;2022-11-20T23:56:07;12.05;;;5.28;;
39896;SDS011;25567;48.276;14.242;2022-11-20T23:58:37;10.27;;;5.15;;
